Time;durP1;ratioP1;P1;durP2;ratioP2;P2;SDS_P1;SDS_P2;PMS_P1;PMS_P2;Temp;Humidity;BMP_temperature;BMP_pressure;BME280_temperature;BME280_humidity;BME280_pressure;Samples;Min_cycle;Max_cycle;Signal;HPM_P1;HPM_P2
2022/11/28 00:01:43;;;;;;;;;;;-1.50;99.90;;;;;;5084183;28;19912;-81
2022/11/28 00:04:09;;;;;;;;;;;-1.50;99.90;;;;;;5061827;28;19916;-81
2022/11/28 00:06:36;;;;;;;;;;;-1.50;99.90;;;;;;5039812;28;19912;-81
2022/11/28 00:09:02;;;;;;;;;;;-1.40;99.90;;;;;;5052372;28;19920;-82
2022/11/28 00:11:28;;;;;;;;;;;-1.40;99.90;;;;;;5061398;28;19917;-81
2022/11/28 00:13:53;;;;;;;;;;;-1.40;99.90;;;;;;5055085;28;19913;-82
2022/11/28 00:16:20;;;;;;;;;;;-1.40;99.90;;;;;;5041341;28;19919;-82
2022/11/28 00:18:47;;;;;;;;;;;-1.30;99.90;;;;;;5048484;28;19909;-81
2022/11/28 00:21:13;;;;;;;;;;;-1.30;99.90;;;;;;5046479;28;20020;-82
2022/11/28 00:23:39;;;;;;;;;;;-1.30;99.90;;;;;;5065704;28;19992;-82
2022/11/28 00:26:09;;;;;;;;;;;-1.30;99.90;;;;;;5064779;28;19947;-82
2022/11/28 00:28:35;;;;;;;;;;;-1.30;99.90;;;;;;5065313;28;20360;-81
2022/11/28 00:31:00;;;;;;;;;;;-1.30;99.90;;;;;;5065941;28;19912;-81
2022/11/28 00:33:26;;;;;;;;;;;-1.40;99.90;;;;;;5051055;28;19913;-81
2022/11/28 00:35:57;;;;;;;;;;;-1.40;99.90;;;;;;5051766;28;19912;-81
2022/11/28 00:38:22;;;;;;;;;;;-1.40;99.90;;;;;;5068094;28;19912;-81
2022/11/28 00:40:48;;;;;;;;;;;-1.40;99.90;;;;;;5068621;28;19947;-82
2022/11/28 00:43:13;;;;;;;;;;;-1.40;99.90;;;;;;5068211;28;19967;-81
2022/11/28 00:45:39;;;;;;;;;;;-1.40;99.90;;;;;;5050973;28;19942;-81
2022/11/28 00:48:04;;;;;;;;;;;-1.40;99.90;;;;;;5050604;28;19912;-83
2022/11/28 00:50:30;;;;;;;;;;;-1.50;99.90;;;;;;5051249;28;19917;-82
2022/11/28 00:52:55;;;;;;;;;;;-1.60;99.90;;;;;;5067246;28;19979;-81
2022/11/28 00:55:21;;;;;;;;;;;-1.70;99.90;;;;;;5067235;28;19923;-81
2022/11/28 00:57:47;;;;;;;;;;;-1.80;99.90;;;;;;5066400;28;19912;-82
2022/11/28 01:00:12;;;;;;;;;;;-1.90;99.90;;;;;;5066865;28;19913;-81
2022/11/28 01:02:38;;;;;;;;;;;-1.90;99.90;;;;;;5066947;28;19991;-82
2022/11/28 01:05:04;;;;;;;;;;;-1.90;99.90;;;;;;5067043;28;19913;-81
2022/11/28 01:07:31;;;;;;;;;;;-1.90;99.90;;;;;;5084240;28;19916;-82
2022/11/28 01:09:57;;;;;;;;;;;-1.90;99.90;;;;;;5063505;28;19958;-82
2022/11/28 01:12:22;;;;;;;;;;;-1.90;99.90;;;;;;5045997;28;19917;-81
2022/11/28 01:14:48;;;;;;;;;;;-1.90;99.90;;;;;;5044701;28;19913;-82
2022/11/28 01:17:13;;;;;;;;;;;-1.90;99.90;;;;;;5045819;28;19984;-82
2022/11/28 01:19:39;;;;;;;;;;;-1.90;99.90;;;;;;5042055;28;19913;-82
2022/11/28 01:22:05;;;;;;;;;;;-1.90;99.90;;;;;;5027343;28;19920;-82
2022/11/28 01:24:31;;;;;;;;;;;-2.00;99.90;;;;;;5028785;28;19927;-81
2022/11/28 01:26:57;;;;;;;;;;;-2.10;99.90;;;;;;5037358;28;19968;-82
2022/11/28 01:29:22;;;;;;;;;;;-2.10;99.90;;;;;;5058870;28;19955;-82
2022/11/28 01:31:48;;;;;;;;;;;-2.10;99.90;;;;;;5044282;28;19940;-81
2022/11/28 01:34:13;;;;;;;;;;;-2.00;99.90;;;;;;5026905;28;19913;-82
2022/11/28 01:36:39;;;;;;;;;;;-2.00;99.90;;;;;;5044078;28;19917;-81
2022/11/28 01:39:04;;;;;;;;;;;-2.00;99.90;;;;;;5026964;28;20320;-82
2022/11/28 01:41:30;;;;;;;;;;;-1.90;99.90;;;;;;5026974;28;19919;-81
2022/11/28 01:44:19;;;;;;;;;;;-1.90;99.90;;;;;;5026987;28;19936;-81
2022/11/28 01:46:44;;;;;;;;;;;-1.80;99.90;;;;;;5022333;28;19962;-81
2022/11/28 01:49:10;;;;;;;;;;;-1.80;99.90;;;;;;5041359;28;19913;-81
2022/11/28 01:51:37;;;;;;;;;;;-1.80;99.90;;;;;;5050120;28;19921;-82
2022/11/28 01:54:03;;;;;;;;;;;-1.80;99.90;;;;;;5066437;28;20007;-82
2022/11/28 01:56:31;;;;;;;;;;;-1.80;99.90;;;;;;5050356;28;19956;-81
2022/11/28 01:58:58;;;;;;;;;;;-1.80;99.90;;;;;;5046476;28;19916;-81
2022/11/28 02:01:24;;;;;;;;;;;-1.80;99.90;;;;;;5078687;28;20386;-81
2022/11/28 02:03:51;;;;;;;;;;;-1.80;99.90;;;;;;5049729;28;19916;-81
2022/11/28 02:06:18;;;;;;;;;;;-1.80;99.90;;;;;;5060278;28;20284;-81
2022/11/28 02:08:44;;;;;;;;;;;-1.80;99.90;;;;;;5060049;28;19956;-81
2022/11/28 02:11:09;;;;;;;;;;;-1.80;99.90;;;;;;5042422;28;19917;-81
2022/11/28 02:13:38;;;;;;;;;;;-1.70;99.90;;;;;;5054328;28;19968;-81
2022/11/28 02:16:12;;;;;;;;;;;-1.80;99.90;;;;;;5045621;28;19970;-81
2022/11/28 02:18:41;;;;;;;;;;;-1.80;99.90;;;;;;5059556;28;19909;-81
2022/11/28 02:21:12;;;;;;;;;;;-1.80;99.90;;;;;;5043555;28;19948;-81
2022/11/28 02:23:56;;;;;;;;;;;-1.80;99.90;;;;;;5063537;28;19909;-81
2022/11/28 02:26:21;;;;;;;;;;;-1.80;99.90;;;;;;5064155;28;19968;-81
2022/11/28 02:29:06;;;;;;;;;;;-1.70;99.90;;;;;;5062380;28;19952;-81
2022/11/28 02:31:57;;;;;;;;;;;-1.70;99.90;;;;;;5045323;28;19990;-81
2022/11/28 02:34:26;;;;;;;;;;;-1.70;99.90;;;;;;5033112;28;19953;-81
2022/11/28 02:36:56;;;;;;;;;;;-1.80;99.90;;;;;;5063782;28;19913;-81
2022/11/28 02:39:29;;;;;;;;;;;-1.80;99.90;;;;;;5046097;28;19917;-82
2022/11/28 02:42:07;;;;;;;;;;;-1.70;99.90;;;;;;5045747;28;19948;-81
2022/11/28 02:44:36;;;;;;;;;;;-1.70;99.90;;;;;;5046344;28;19909;-82
2022/11/28 02:47:04;;;;;;;;;;;-1.70;99.90;;;;;;5045164;28;19913;-81
2022/11/28 02:49:34;;;;;;;;;;;-1.60;99.90;;;;;;5064177;28;19991;-81
2022/11/28 02:52:13;;;;;;;;;;;-1.60;99.90;;;;;;5046465;28;19909;-82
2022/11/28 02:54:40;;;;;;;;;;;-1.60;99.90;;;;;;5063971;28;20246;-81
2022/11/28 02:57:07;;;;;;;;;;;-1.60;99.90;;;;;;5029697;28;19912;-82
2022/11/28 02:59:35;;;;;;;;;;;-1.60;99.90;;;;;;5062613;28;19909;-82
2022/11/28 03:02:12;;;;;;;;;;;-1.70;99.90;;;;;;5043787;28;20474;-82
2022/11/28 03:04:43;;;;;;;;;;;-1.70;99.90;;;;;;5063422;28;19909;-81
2022/11/28 03:07:27;;;;;;;;;;;-1.80;99.90;;;;;;5046657;28;19909;-81
2022/11/28 03:10:02;;;;;;;;;;;-1.80;99.90;;;;;;5044541;28;19920;-81
2022/11/28 03:12:37;;;;;;;;;;;-1.80;99.90;;;;;;5048466;28;19909;-82
2022/11/28 03:15:04;;;;;;;;;;;-1.80;99.90;;;;;;5067314;28;19909;-82
2022/11/28 03:17:30;;;;;;;;;;;-1.80;99.90;;;;;;5048736;28;19980;-82
2022/11/28 03:19:56;;;;;;;;;;;-1.80;99.90;;;;;;5048597;28;20387;-81
2022/11/28 03:22:31;;;;;;;;;;;-1.80;99.90;;;;;;5035121;28;19916;-81
2022/11/28 03:25:20;;;;;;;;;;;-1.70;99.90;;;;;;5046408;28;19909;-82
2022/11/28 03:27:58;;;;;;;;;;;-1.70;99.90;;;;;;5035310;28;19909;-82
2022/11/28 03:30:29;;;;;;;;;;;-1.70;99.90;;;;;;5047970;28;19913;-82
2022/11/28 03:32:55;;;;;;;;;;;-1.60;99.90;;;;;;5045671;28;19932;-81
2022/11/28 03:35:22;;;;;;;;;;;-1.70;99.90;;;;;;5030643;28;20312;-81
2022/11/28 03:37:51;;;;;;;;;;;-1.70;99.90;;;;;;5047110;28;20298;-82
2022/11/28 03:40:21;;;;;;;;;;;-1.70;99.90;;;;;;5045755;28;19916;-82
2022/11/28 03:42:49;;;;;;;;;;;-1.70;99.90;;;;;;5051589;28;20380;-82
2022/11/28 03:45:17;;;;;;;;;;;-1.70;99.90;;;;;;5054106;28;19909;-82
2022/11/28 03:47:51;;;;;;;;;;;-1.70;99.90;;;;;;5045954;28;19909;-82
2022/11/28 03:50:19;;;;;;;;;;;-1.70;99.90;;;;;;5046781;28;19913;-82
2022/11/28 03:52:49;;;;;;;;;;;-1.70;99.90;;;;;;5057149;28;20008;-81
2022/11/28 03:55:20;;;;;;;;;;;-1.70;99.90;;;;;;5065755;28;20316;-81
2022/11/28 03:58:24;;;;;;;;;;;-1.70;99.90;;;;;;5056729;28;20365;-81
2022/11/28 04:01:07;;;;;;;;;;;-1.70;99.90;;;;;;5007507;28;19921;-81
2022/11/28 04:03:37;;;;;;;;;;;-1.70;99.90;;;;;;4996137;28;19941;-81
2022/11/28 04:06:13;;;;;;;;;;;-1.60;99.90;;;;;;5058371;28;19909;-82
2022/11/28 04:08:40;;;;;;;;;;;-1.70;99.90;;;;;;5065818;28;19917;-82
2022/11/28 04:11:14;;;;;;;;;;;-1.70;99.90;;;;;;5057988;28;19912;-82
2022/11/28 04:13:44;;;;;;;;;;;-1.70;99.90;;;;;;5057306;28;19916;-81
2022/11/28 04:16:12;;;;;;;;;;;-1.60;99.90;;;;;;5064950;28;19915;-81
2022/11/28 04:18:58;;;;;;;;;;;-1.60;99.90;;;;;;5058041;28;20319;-81
2022/11/28 04:21:28;;;;;;;;;;;-1.60;99.90;;;;;;5058565;28;19916;-82
2022/11/28 04:23:55;;;;;;;;;;;-1.50;99.90;;;;;;5072636;28;19915;-81
2022/11/28 04:26:31;;;;;;;;;;;-1.50;99.90;;;;;;5061598;28;19909;-82
2022/11/28 04:28:57;;;;;;;;;;;-1.60;99.90;;;;;;5056732;28;19947;-82
2022/11/28 04:31:23;;;;;;;;;;;-1.60;99.90;;;;;;5074701;28;19917;-82
2022/11/28 04:33:52;;;;;;;;;;;-1.60;99.90;;;;;;5059255;28;19908;-82
2022/11/28 04:36:19;;;;;;;;;;;-1.60;99.90;;;;;;5043343;28;20011;-81
2022/11/28 04:38:53;;;;;;;;;;;-1.60;99.90;;;;;;5027679;28;19913;-81
2022/11/28 04:41:21;;;;;;;;;;;-1.60;99.90;;;;;;5046639;28;20453;-81
2022/11/28 04:43:53;;;;;;;;;;;-1.60;99.90;;;;;;5051791;28;19915;-82
2022/11/28 04:46:23;;;;;;;;;;;-1.60;99.90;;;;;;5043461;28;19915;-81
2022/11/28 04:48:49;;;;;;;;;;;-1.60;99.90;;;;;;5043866;28;19936;-82
2022/11/28 04:51:21;;;;;;;;;;;-1.60;99.90;;;;;;5037675;28;19920;-81
2022/11/28 04:53:47;;;;;;;;;;;-1.60;99.90;;;;;;5043901;28;19909;-82
2022/11/28 04:56:16;;;;;;;;;;;-1.60;99.90;;;;;;5036774;28;19909;-82
2022/11/28 04:58:44;;;;;;;;;;;-1.60;99.90;;;;;;5038788;28;19914;-82
2022/11/28 05:01:13;;;;;;;;;;;-1.60;99.90;;;;;;5035197;28;19955;-81
2022/11/28 05:03:38;;;;;;;;;;;-1.60;99.90;;;;;;5034921;28;19916;-83
2022/11/28 05:06:05;;;;;;;;;;;-1.70;99.90;;;;;;5034867;28;19909;-82
2022/11/28 05:08:30;;;;;;;;;;;-1.60;99.90;;;;;;5017243;28;20357;-82
2022/11/28 05:10:56;;;;;;;;;;;-1.60;99.90;;;;;;5035284;28;19925;-82
2022/11/28 05:13:21;;;;;;;;;;;-1.60;99.90;;;;;;5016454;28;19924;-82
2022/11/28 05:15:47;;;;;;;;;;;-1.60;99.90;;;;;;5051445;28;19921;-83
2022/11/28 05:18:12;;;;;;;;;;;-1.60;99.90;;;;;;5053478;28;19919;-82
2022/11/28 05:20:39;;;;;;;;;;;-1.60;99.90;;;;;;5034753;28;20003;-82
2022/11/28 05:23:05;;;;;;;;;;;-1.60;99.90;;;;;;5052219;28;19913;-83
2022/11/28 05:25:31;;;;;;;;;;;-1.60;99.90;;;;;;5017348;28;19920;-82
2022/11/28 05:27:56;;;;;;;;;;;-1.60;99.90;;;;;;5021692;28;19976;-83
2022/11/28 05:30:22;;;;;;;;;;;-1.60;99.90;;;;;;5056779;28;19920;-82
2022/11/28 05:32:47;;;;;;;;;;;-1.60;99.90;;;;;;5056468;28;19908;-83
2022/11/28 05:35:13;;;;;;;;;;;-1.60;99.90;;;;;;5023421;28;19940;-83
2022/11/28 05:37:39;;;;;;;;;;;-1.60;99.90;;;;;;5059570;28;19931;-82
2022/11/28 05:40:05;;;;;;;;;;;-1.70;99.90;;;;;;5056926;28;19976;-82
2022/11/28 05:42:31;;;;;;;;;;;-1.70;99.90;;;;;;5056433;28;19995;-83
2022/11/28 05:44:57;;;;;;;;;;;-1.70;99.90;;;;;;5057789;28;19916;-82
2022/11/28 05:47:24;;;;;;;;;;;-1.60;99.90;;;;;;5057232;28;20288;-82
2022/11/28 05:49:49;;;;;;;;;;;-1.60;99.90;;;;;;5041998;28;19958;-83
2022/11/28 05:52:15;;;;;;;;;;;-1.60;99.90;;;;;;5077662;28;19909;-83
2022/11/28 05:54:40;;;;;;;;;;;-1.60;99.90;;;;;;5058200;28;19909;-84
2022/11/28 05:57:06;;;;;;;;;;;-1.50;99.90;;;;;;5053890;28;19913;-83
2022/11/28 05:59:32;;;;;;;;;;;-1.50;99.90;;;;;;5025464;28;19917;-83
2022/11/28 06:01:57;;;;;;;;;;;-1.50;99.90;;;;;;5041684;28;19947;-83
2022/11/28 06:04:23;;;;;;;;;;;-1.50;99.90;;;;;;5041836;28;19971;-82
2022/11/28 06:06:49;;;;;;;;;;;-1.50;99.90;;;;;;5025716;28;19958;-82
2022/11/28 06:09:15;;;;;;;;;;;-1.50;99.90;;;;;;5059498;28;19928;-84
2022/11/28 06:11:40;;;;;;;;;;;-1.60;99.90;;;;;;5041609;28;19916;-83
2022/11/28 06:14:06;;;;;;;;;;;-1.60;99.90;;;;;;5042263;28;19920;-83
2022/11/28 06:16:32;;;;;;;;;;;-1.70;99.90;;;;;;5039882;28;19920;-84
2022/11/28 06:19:01;;;;;;;;;;;-1.70;99.90;;;;;;5048974;28;20348;-83
2022/11/28 06:21:27;;;;;;;;;;;-1.70;99.90;;;;;;5071240;28;19908;-82
2022/11/28 06:23:53;;;;;;;;;;;-1.70;99.90;;;;;;5059060;28;19944;-83
2022/11/28 06:26:20;;;;;;;;;;;-1.70;99.90;;;;;;5041040;28;19908;-83
2022/11/28 06:28:46;;;;;;;;;;;-1.60;99.90;;;;;;5049063;28;19909;-82
2022/11/28 06:31:12;;;;;;;;;;;-1.60;99.90;;;;;;5074753;28;20014;-83
2022/11/28 06:33:38;;;;;;;;;;;-1.60;99.90;;;;;;5078019;28;19909;-82
2022/11/28 06:36:05;;;;;;;;;;;-1.50;99.90;;;;;;5061116;28;19916;-83
2022/11/28 06:38:30;;;;;;;;;;;-1.50;99.90;;;;;;5060958;28;19909;-83
2022/11/28 06:40:57;;;;;;;;;;;-1.50;99.90;;;;;;5061321;28;20387;-83
2022/11/28 06:43:23;;;;;;;;;;;-1.40;99.90;;;;;;5060820;28;19919;-82
2022/11/28 06:45:48;;;;;;;;;;;-1.40;99.90;;;;;;5077684;28;19908;-83
2022/11/28 06:48:14;;;;;;;;;;;-1.40;99.90;;;;;;5060798;28;19967;-83
2022/11/28 06:50:39;;;;;;;;;;;-1.40;99.90;;;;;;5060080;28;19917;-82
2022/11/28 06:53:05;;;;;;;;;;;-1.40;99.90;;;;;;5040002;28;19916;-82
2022/11/28 06:55:30;;;;;;;;;;;-1.40;99.90;;;;;;5055957;28;19913;-83
2022/11/28 06:57:56;;;;;;;;;;;-1.30;99.90;;;;;;5057284;28;19920;-84
2022/11/28 07:00:21;;;;;;;;;;;-1.30;99.90;;;;;;5056193;28;20361;-83
2022/11/28 07:02:47;;;;;;;;;;;-1.30;99.90;;;;;;5023828;28;19921;-82
2022/11/28 07:05:15;;;;;;;;;;;-1.30;99.90;;;;;;5019271;28;19909;-82
2022/11/28 07:07:41;;;;;;;;;;;-1.30;99.90;;;;;;5019061;28;19918;-82
2022/11/28 07:10:07;;;;;;;;;;;-1.30;99.90;;;;;;5037186;28;19924;-82
2022/11/28 07:12:33;;;;;;;;;;;-1.20;99.90;;;;;;5021066;28;19913;-83
2022/11/28 07:14:58;;;;;;;;;;;-1.20;99.90;;;;;;5032956;28;19909;-82
2022/11/28 07:17:24;;;;;;;;;;;-1.20;99.90;;;;;;5021858;28;19913;-81
2022/11/28 07:19:49;;;;;;;;;;;-1.20;99.90;;;;;;5021517;28;20012;-82
2022/11/28 07:22:15;;;;;;;;;;;-1.10;99.90;;;;;;5058770;28;19916;-82
2022/11/28 07:24:40;;;;;;;;;;;-1.10;99.90;;;;;;5037917;28;19913;-82
2022/11/28 07:27:06;;;;;;;;;;;-1.10;99.90;;;;;;5038386;28;19913;-82
2022/11/28 07:29:35;;;;;;;;;;;-1.10;99.90;;;;;;5038425;28;20007;-81
2022/11/28 07:32:01;;;;;;;;;;;-1.00;99.90;;;;;;5038616;28;19916;-81
2022/11/28 07:34:27;;;;;;;;;;;-1.00;99.90;;;;;;5038302;28;20365;-82
2022/11/28 07:36:53;;;;;;;;;;;-1.00;99.90;;;;;;5022306;28;19924;-82
2022/11/28 07:39:18;;;;;;;;;;;-1.00;99.90;;;;;;5048227;28;19919;-82
2022/11/28 07:41:44;;;;;;;;;;;-1.00;99.90;;;;;;5065012;28;20369;-82
2022/11/28 07:44:10;;;;;;;;;;;-0.90;99.90;;;;;;5060443;28;19995;-82
2022/11/28 07:46:37;;;;;;;;;;;-0.90;99.90;;;;;;5067800;28;19916;-82
2022/11/28 07:49:03;;;;;;;;;;;-0.80;99.90;;;;;;5061503;28;20438;-84
2022/11/28 07:51:30;;;;;;;;;;;-0.80;99.90;;;;;;5044557;28;20003;-82
2022/11/28 07:53:56;;;;;;;;;;;-0.80;99.90;;;;;;5050023;28;19962;-82
2022/11/28 07:56:23;;;;;;;;;;;-0.70;99.90;;;;;;5046875;28;19909;-82
2022/11/28 07:58:49;;;;;;;;;;;-0.70;99.90;;;;;;5056310;28;19944;-82
2022/11/28 08:01:15;;;;;;;;;;;-0.60;99.90;;;;;;5056444;28;19932;-82
2022/11/28 08:03:40;;;;;;;;;;;-0.60;99.90;;;;;;5038188;28;19958;-82
2022/11/28 08:06:07;;;;;;;;;;;-0.60;99.90;;;;;;5056150;28;20289;-82
2022/11/28 08:08:32;;;;;;;;;;;-0.50;99.90;;;;;;5056191;28;19927;-81
2022/11/28 08:10:59;;;;;;;;;;;-0.50;99.90;;;;;;5062359;28;19917;-81
2022/11/28 08:13:25;;;;;;;;;;;-0.50;99.90;;;;;;5047705;28;19908;-82
2022/11/28 08:15:50;;;;;;;;;;;-0.40;99.90;;;;;;5061905;28;19909;-83
2022/11/28 08:18:16;;;;;;;;;;;-0.40;99.90;;;;;;5047344;28;20041;-82
2022/11/28 08:20:42;;;;;;;;;;;-0.40;99.90;;;;;;5045040;28;19924;-82
2022/11/28 08:23:07;;;;;;;;;;;-0.30;99.90;;;;;;5048143;28;19913;-83
2022/11/28 08:25:33;;;;;;;;;;;-0.30;99.90;;;;;;5030809;28;19913;-82
2022/11/28 08:27:58;;;;;;;;;;;-0.20;99.90;;;;;;5027294;28;19956;-82
2022/11/28 08:30:24;;;;;;;;;;;-0.20;99.90;;;;;;5043688;28;19928;-82
2022/11/28 08:32:50;;;;;;;;;;;-0.10;99.90;;;;;;5038572;28;19956;-81
2022/11/28 08:35:16;;;;;;;;;;;-0.10;99.90;;;;;;5057800;28;19908;-83
2022/11/28 08:37:41;;;;;;;;;;;0.00;99.90;;;;;;5040763;28;20382;-82
2022/11/28 08:40:07;;;;;;;;;;;0.00;99.90;;;;;;5048443;28;19955;-82
2022/11/28 08:42:33;;;;;;;;;;;0.00;99.90;;;;;;5058715;28;19908;-82
2022/11/28 08:44:58;;;;;;;;;;;0.10;99.90;;;;;;5066158;28;20376;-82
2022/11/28 08:47:24;;;;;;;;;;;0.10;99.90;;;;;;5037909;28;19913;-82
2022/11/28 08:49:50;;;;;;;;;;;0.10;99.90;;;;;;5066794;28;20027;-82
2022/11/28 08:52:16;;;;;;;;;;;0.20;99.90;;;;;;5047015;28;19920;-82
2022/11/28 08:54:42;;;;;;;;;;;0.20;99.90;;;;;;5066176;28;19936;-83
2022/11/28 08:57:07;;;;;;;;;;;0.20;99.90;;;;;;5037450;28;19913;-82
2022/11/28 08:59:33;;;;;;;;;;;0.30;99.90;;;;;;5055313;28;19909;-82
2022/11/28 09:01:58;;;;;;;;;;;0.30;99.90;;;;;;5020892;28;19912;-82
2022/11/28 09:04:24;;;;;;;;;;;0.30;99.90;;;;;;5021019;28;19917;-82
2022/11/28 09:06:50;;;;;;;;;;;0.40;99.90;;;;;;5037582;28;19913;-82
2022/11/28 09:09:15;;;;;;;;;;;0.40;99.90;;;;;;5037385;28;19959;-82
2022/11/28 09:11:41;;;;;;;;;;;0.50;99.90;;;;;;5037336;28;19928;-82
2022/11/28 09:14:06;;;;;;;;;;;0.50;99.90;;;;;;5037193;28;19942;-82
2022/11/28 09:16:32;;;;;;;;;;;0.60;99.90;;;;;;5036688;28;19916;-82
2022/11/28 09:18:58;;;;;;;;;;;0.60;99.90;;;;;;5060254;28;19913;-82
2022/11/28 09:21:24;;;;;;;;;;;0.70;99.90;;;;;;5065587;28;19909;-83
2022/11/28 09:23:49;;;;;;;;;;;0.70;99.90;;;;;;5065118;28;19950;-82
2022/11/28 09:26:19;;;;;;;;;;;0.80;99.90;;;;;;5053952;28;20317;-84
2022/11/28 09:28:45;;;;;;;;;;;0.80;99.90;;;;;;5062316;28;19996;-83
2022/11/28 09:31:11;;;;;;;;;;;0.90;99.90;;;;;;5032197;28;19959;-82
2022/11/28 09:33:37;;;;;;;;;;;0.90;99.90;;;;;;5024336;28;19913;-82
2022/11/28 09:36:03;;;;;;;;;;;1.00;99.90;;;;;;5059418;28;19916;-82
2022/11/28 09:38:29;;;;;;;;;;;1.00;99.90;;;;;;5058161;28;19948;-83
2022/11/28 09:40:54;;;;;;;;;;;1.10;99.90;;;;;;5025679;28;19917;-83
2022/11/28 09:43:37;;;;;;;;;;;1.10;99.90;;;;;;5040771;28;20305;-82
2022/11/28 09:46:04;;;;;;;;;;;1.10;99.90;;;;;;5040546;28;19909;-82
2022/11/28 09:48:35;;;;;;;;;;;1.10;99.90;;;;;;5058061;28;19909;-83
2022/11/28 09:51:06;;;;;;;;;;;1.20;99.90;;;;;;5037654;28;19912;-83
2022/11/28 09:53:34;;;;;;;;;;;1.20;99.90;;;;;;5031196;28;19917;-83
2022/11/28 09:56:16;;;;;;;;;;;1.20;99.90;;;;;;5057866;28;20288;-84
2022/11/28 09:58:49;;;;;;;;;;;1.20;99.90;;;;;;5039627;28;19920;-84
2022/11/28 10:01:35;;;;;;;;;;;1.30;99.90;;;;;;5040259;28;19909;-84
2022/11/28 10:04:03;;;;;;;;;;;1.30;99.90;;;;;;5039041;28;20425;-83
2022/11/28 10:06:38;;;;;;;;;;;1.30;99.90;;;;;;5041055;28;19959;-83
2022/11/28 10:09:08;;;;;;;;;;;1.40;99.90;;;;;;5040764;28;20007;-82
2022/11/28 10:11:52;;;;;;;;;;;1.40;99.90;;;;;;5041559;28;20015;-84
2022/11/28 10:14:18;;;;;;;;;;;1.40;99.90;;;;;;5022854;28;19909;-84
2022/11/28 10:16:54;;;;;;;;;;;1.50;99.90;;;;;;5040717;28;19909;-84
2022/11/28 10:19:31;;;;;;;;;;;1.50;99.90;;;;;;5075836;28;19908;-84
2022/11/28 10:21:59;;;;;;;;;;;1.50;99.90;;;;;;5055678;28;19909;-84
2022/11/28 10:24:38;;;;;;;;;;;1.50;99.90;;;;;;5047096;28;19909;-84
2022/11/28 10:27:04;;;;;;;;;;;1.60;99.90;;;;;;5025910;28;19931;-84
2022/11/28 10:30:03;;;;;;;;;;;1.60;99.90;;;;;;5026690;28;19919;-84
2022/11/28 10:32:36;;;;;;;;;;;1.60;99.90;;;;;;5021905;28;19917;-84
2022/11/28 10:35:05;;;;;;;;;;;1.60;99.90;;;;;;5045382;28;19917;-82
2022/11/28 10:37:33;;;;;;;;;;;1.70;99.90;;;;;;5045631;28;19909;-83
2022/11/28 10:40:14;;;;;;;;;;;1.70;99.90;;;;;;5062690;28;19963;-82
2022/11/28 10:42:43;;;;;;;;;;;1.70;99.90;;;;;;5047520;28;20360;-83
2022/11/28 10:45:09;;;;;;;;;;;1.80;99.90;;;;;;5047509;28;19924;-83
2022/11/28 10:47:53;;;;;;;;;;;1.80;99.90;;;;;;5046326;28;19909;-83
2022/11/28 10:50:22;;;;;;;;;;;1.80;99.90;;;;;;5045020;28;19913;-83
2022/11/28 10:52:58;;;;;;;;;;;1.80;99.90;;;;;;5044006;28;19998;-83
2022/11/28 10:55:35;;;;;;;;;;;1.90;99.90;;;;;;5041102;28;20069;-83
2022/11/28 10:58:20;;;;;;;;;;;1.90;99.90;;;;;;5039710;28;19909;-83
2022/11/28 11:00:48;;;;;;;;;;;1.90;99.90;;;;;;5039519;28;19951;-83
2022/11/28 11:03:16;;;;;;;;;;;1.90;99.90;;;;;;5023055;28;19920;-83
2022/11/28 11:05:41;;;;;;;;;;;2.00;99.90;;;;;;5039783;28;20311;-84
2022/11/28 11:08:07;;;;;;;;;;;2.00;99.90;;;;;;5038188;28;19927;-83
2022/11/28 11:10:41;;;;;;;;;;;2.00;99.90;;;;;;5053785;28;19980;-83
2022/11/28 11:13:39;;;;;;;;;;;2.10;99.90;;;;;;5040074;28;20389;-84
2022/11/28 11:16:06;;;;;;;;;;;2.10;99.90;;;;;;4959541;28;19910;-83
2022/11/28 11:18:36;;;;;;;;;;;2.10;99.90;;;;;;4975483;28;19914;-83
2022/11/28 11:21:13;;;;;;;;;;;2.20;99.90;;;;;;5058156;28;19920;-83
2022/11/28 11:23:39;;;;;;;;;;;2.20;99.90;;;;;;5057099;28;19972;-83
2022/11/28 11:26:08;;;;;;;;;;;2.20;99.90;;;;;;5055021;28;19932;-84
2022/11/28 11:28:47;;;;;;;;;;;2.20;99.90;;;;;;5043703;28;20431;-83
2022/11/28 11:31:33;;;;;;;;;;;2.30;99.90;;;;;;5022961;28;20020;-83
2022/11/28 11:34:06;;;;;;;;;;;2.30;99.90;;;;;;5028103;28;19913;-83
2022/11/28 11:36:33;;;;;;;;;;;2.40;99.90;;;;;;5040606;28;19991;-83
2022/11/28 11:39:13;;;;;;;;;;;2.40;99.90;;;;;;5058144;28;19917;-83
2022/11/28 11:41:40;;;;;;;;;;;2.40;99.90;;;;;;5040321;28;19909;-83
2022/11/28 11:44:12;;;;;;;;;;;2.50;99.90;;;;;;5039745;28;19912;-83
2022/11/28 11:46:57;;;;;;;;;;;2.50;99.90;;;;;;5040023;28;19908;-83
2022/11/28 11:49:37;;;;;;;;;;;2.50;99.90;;;;;;5043745;28;19920;-84
2022/11/28 11:52:11;;;;;;;;;;;2.60;99.90;;;;;;5050960;28;19931;-82
2022/11/28 11:54:37;;;;;;;;;;;2.60;99.90;;;;;;5037747;28;19959;-82
2022/11/28 11:57:03;;;;;;;;;;;2.60;99.90;;;;;;5038912;28;19917;-83
2022/11/28 11:59:47;;;;;;;;;;;2.60;99.90;;;;;;5038766;28;19978;-83
2022/11/28 12:02:22;;;;;;;;;;;2.70;99.90;;;;;;5056943;28;20357;-83
2022/11/28 12:04:52;;;;;;;;;;;2.70;99.90;;;;;;5037989;28;19908;-83
2022/11/28 12:07:25;;;;;;;;;;;2.70;99.90;;;;;;5056467;28;19909;-83
2022/11/28 12:09:52;;;;;;;;;;;2.70;99.90;;;;;;5055876;28;19963;-83
2022/11/28 12:12:27;;;;;;;;;;;2.80;99.90;;;;;;5037362;28;20016;-82
2022/11/28 12:14:53;;;;;;;;;;;2.80;99.90;;;;;;5055487;28;19908;-83
2022/11/28 12:17:38;;;;;;;;;;;2.80;99.90;;;;;;5055110;28;19909;-83
2022/11/28 12:20:21;;;;;;;;;;;2.80;99.90;;;;;;5036854;28;20476;-84
2022/11/28 12:23:06;;;;;;;;;;;2.80;99.90;;;;;;5040674;28;19954;-84
2022/11/28 12:25:46;;;;;;;;;;;2.80;99.90;;;;;;5073309;28;19913;-84
2022/11/28 12:28:25;;;;;;;;;;;2.90;99.90;;;;;;5047058;28;19909;-85
2022/11/28 12:31:09;;;;;;;;;;;2.90;99.90;;;;;;5064179;28;19966;-85
2022/11/28 12:33:53;;;;;;;;;;;3.00;99.90;;;;;;5061945;28;20365;-84
2022/11/28 12:36:30;;;;;;;;;;;3.00;99.90;;;;;;5066517;28;19908;-84
2022/11/28 12:38:59;;;;;;;;;;;3.00;99.90;;;;;;5083757;28;19931;-84
2022/11/28 12:41:40;;;;;;;;;;;3.10;99.90;;;;;;5063348;28;20284;-85
2022/11/28 12:44:21;;;;;;;;;;;3.10;99.90;;;;;;5064462;28;20359;-84
2022/11/28 12:46:53;;;;;;;;;;;3.10;99.90;;;;;;5065010;28;19909;-85
2022/11/28 12:49:23;;;;;;;;;;;3.10;99.90;;;;;;5065104;28;19915;-84
2022/11/28 12:51:49;;;;;;;;;;;3.10;99.90;;;;;;5060937;28;20381;-85
2022/11/28 12:54:33;;;;;;;;;;;3.20;99.90;;;;;;5060595;28;19909;-83
2022/11/28 12:57:04;;;;;;;;;;;3.20;99.90;;;;;;5058018;28;19915;-84
2022/11/28 12:59:48;;;;;;;;;;;3.20;99.90;;;;;;5061136;28;19976;-84
2022/11/28 13:02:24;;;;;;;;;;;3.20;99.90;;;;;;5057135;28;19909;-83
2022/11/28 13:04:56;;;;;;;;;;;3.20;99.90;;;;;;5063522;28;19991;-84
2022/11/28 13:07:25;;;;;;;;;;;3.20;99.90;;;;;;5043667;28;20336;-83
2022/11/28 13:09:53;;;;;;;;;;;3.20;99.90;;;;;;5042382;28;19909;-83
2022/11/28 13:12:19;;;;;;;;;;;3.20;99.90;;;;;;5056394;28;19909;-84
2022/11/28 13:14:54;;;;;;;;;;;3.20;99.90;;;;;;5075020;28;19970;-84
2022/11/28 13:17:23;;;;;;;;;;;3.20;99.90;;;;;;5057899;28;19923;-83
2022/11/28 13:19:48;;;;;;;;;;;3.20;99.90;;;;;;5043993;28;20380;-83
2022/11/28 13:22:19;;;;;;;;;;;3.30;99.90;;;;;;5061769;28;19908;-83
2022/11/28 13:25:03;;;;;;;;;;;3.30;99.90;;;;;;5045474;28;19909;-84
2022/11/28 13:28:01;;;;;;;;;;;3.30;99.90;;;;;;5046513;28;21231;-83
2022/11/28 13:30:30;;;;;;;;;;;3.30;99.90;;;;;;4985452;28;20304;-84
2022/11/28 13:33:04;;;;;;;;;;;3.30;99.90;;;;;;5030158;28;19908;-83
2022/11/28 13:35:30;;;;;;;;;;;3.30;99.90;;;;;;5044765;28;20247;-84
2022/11/28 13:38:11;;;;;;;;;;;3.30;99.90;;;;;;5048129;28;19916;-83
2022/11/28 13:40:46;;;;;;;;;;;3.30;99.90;;;;;;5046272;28;19996;-84
2022/11/28 13:43:21;;;;;;;;;;;3.30;99.90;;;;;;5040642;28;19913;-83
2022/11/28 13:45:47;;;;;;;;;;;3.20;99.90;;;;;;5075268;28;19913;-84
2022/11/28 13:48:31;;;;;;;;;;;3.20;99.90;;;;;;5045255;28;19920;-84
2022/11/28 13:50:57;;;;;;;;;;;3.20;99.90;;;;;;5065334;28;19920;-83
2022/11/28 13:53:24;;;;;;;;;;;3.20;99.90;;;;;;5028126;28;19916;-82
2022/11/28 13:55:50;;;;;;;;;;;3.10;99.90;;;;;;5028792;28;20010;-82
2022/11/28 13:58:18;;;;;;;;;;;3.10;99.90;;;;;;5043240;28;19963;-84
2022/11/28 14:01:03;;;;;;;;;;;3.10;99.90;;;;;;5041190;28;20390;-81
2022/11/28 14:03:29;;;;;;;;;;;3.10;99.90;;;;;;5045178;28;19951;-83
2022/11/28 14:05:57;;;;;;;;;;;3.10;99.90;;;;;;5065661;28;19915;-83
2022/11/28 14:08:42;;;;;;;;;;;3.10;99.90;;;;;;5062825;28;19925;-83
2022/11/28 14:11:26;;;;;;;;;;;3.10;99.90;;;;;;5058921;28;20433;-83
2022/11/28 14:14:04;;;;;;;;;;;3.00;99.90;;;;;;5066797;28;19919;-82
2022/11/28 14:16:37;;;;;;;;;;;3.00;99.90;;;;;;5046262;28;19948;-83
2022/11/28 14:19:21;;;;;;;;;;;3.00;99.90;;;;;;5058496;28;19909;-82
2022/11/28 14:21:56;;;;;;;;;;;3.00;99.90;;;;;;5046165;28;20307;-82
2022/11/28 14:24:37;;;;;;;;;;;3.00;99.90;;;;;;5056852;28;19909;-83
2022/11/28 14:27:03;;;;;;;;;;;3.00;99.90;;;;;;5055754;28;19916;-83
2022/11/28 14:29:39;;;;;;;;;;;3.00;99.90;;;;;;5057671;28;19912;-83
2022/11/28 14:32:05;;;;;;;;;;;3.00;99.90;;;;;;5057529;28;19960;-83
2022/11/28 14:34:35;;;;;;;;;;;3.00;99.90;;;;;;5057988;28;19913;-83
2022/11/28 14:37:20;;;;;;;;;;;3.00;99.90;;;;;;5056319;28;19913;-84